sensor_id;sensor_type;location;lat;lon;timestamp;pressure;altitude;pressure_sealevel;temperature;humidity
62697;BME280;48761;42.680;23.312;2024-03-25T00:00:31;93582.09;;;6.72;79.70
62697;BME280;48761;42.680;23.312;2024-03-25T00:02:57;93586.81;;;6.55;80.19
62697;BME280;48761;42.680;23.312;2024-03-25T00:05:23;93585.75;;;6.22;80.98
62697;BME280;48761;42.680;23.312;2024-03-25T00:07:49;93570.22;;;6.42;80.91
62697;BME280;48761;42.680;23.312;2024-03-25T00:10:15;93577.53;;;6.74;79.89
62697;BME280;48761;42.680;23.312;2024-03-25T00:12:41;93583.09;;;6.82;78.76
62697;BME280;48761;42.680;23.312;2024-03-25T00:15:07;93575.13;;;6.71;79.37
62697;BME280;48761;42.680;23.312;2024-03-25T00:17:34;93556.03;;;6.67;80.74
62697;BME280;48761;42.680;23.312;2024-03-25T00:19:59;93556.13;;;6.66;80.60
62697;BME280;48761;42.680;23.312;2024-03-25T00:22:25;93572.06;;;7.12;78.27
62697;BME280;48761;42.680;23.312;2024-03-25T00:24:51;93567.69;;;6.40;80.61
62697;BME280;48761;42.680;23.312;2024-03-25T00:27:17;93559.34;;;7.17;78.17
62697;BME280;48761;42.680;23.312;2024-03-25T00:29:43;93546.06;;;6.59;79.21
62697;BME280;48761;42.680;23.312;2024-03-25T00:32:09;93536.94;;;6.64;79.63
62697;BME280;48761;42.680;23.312;2024-03-25T00:34:36;93540.50;;;6.51;80.37
62697;BME280;48761;42.680;23.312;2024-03-25T00:37:03;93540.13;;;7.15;79.02
62697;BME280;48761;42.680;23.312;2024-03-25T00:39:29;93542.41;;;7.20;78.66
62697;BME280;48761;42.680;23.312;2024-03-25T00:41:55;93536.63;;;6.91;80.13
62697;BME280;48761;42.680;23.312;2024-03-25T00:44:21;93533.03;;;7.38;78.70
62697;BME280;48761;42.680;23.312;2024-03-25T00:46:47;93538.22;;;7.17;78.48
62697;BME280;48761;42.680;23.312;2024-03-25T00:49:13;93531.69;;;6.87;80.57
62697;BME280;48761;42.680;23.312;2024-03-25T00:51:39;93536.75;;;7.01;80.31
62697;BME280;48761;42.680;23.312;2024-03-25T00:54:05;93538.19;;;6.94;81.10
62697;BME280;48761;42.680;23.312;2024-03-25T00:56:31;93543.41;;;6.71;81.04
62697;BME280;48761;42.680;23.312;2024-03-25T00:58:57;93531.44;;;6.31;83.97
62697;BME280;48761;42.680;23.312;2024-03-25T01:01:24;93535.81;;;7.02;81.54
62697;BME280;48761;42.680;23.312;2024-03-25T01:03:49;93529.28;;;6.83;81.24
62697;BME280;48761;42.680;23.312;2024-03-25T01:06:15;93518.03;;;6.45;82.93
62697;BME280;48761;42.680;23.312;2024-03-25T01:08:41;93517.88;;;6.71;82.49
62697;BME280;48761;42.680;23.312;2024-03-25T01:11:07;93502.16;;;7.04;80.88
62697;BME280;48761;42.680;23.312;2024-03-25T01:13:33;93496.41;;;6.99;81.66
62697;BME280;48761;42.680;23.312;2024-03-25T01:15:59;93493.25;;;7.28;80.41
62697;BME280;48761;42.680;23.312;2024-03-25T01:18:25;93496.78;;;7.17;80.26
62697;BME280;48761;42.680;23.312;2024-03-25T01:20:50;93494.09;;;7.52;79.76
62697;BME280;48761;42.680;23.312;2024-03-25T01:23:16;93478.38;;;7.16;81.30
62697;BME280;48761;42.680;23.312;2024-03-25T01:25:42;93485.09;;;7.09;82.99
62697;BME280;48761;42.680;23.312;2024-03-25T01:28:08;93495.03;;;7.62;80.39
62697;BME280;48761;42.680;23.312;2024-03-25T01:30:34;93495.63;;;7.66;80.42
62697;BME280;48761;42.680;23.312;2024-03-25T01:33:00;93494.22;;;7.39;80.01
62697;BME280;48761;42.680;23.312;2024-03-25T01:35:26;93494.06;;;7.75;79.29
62697;BME280;48761;42.680;23.312;2024-03-25T01:37:52;93505.69;;;7.84;79.69
62697;BME280;48761;42.680;23.312;2024-03-25T01:40:18;93506.69;;;8.16;78.06
62697;BME280;48761;42.680;23.312;2024-03-25T01:42:43;93515.84;;;7.56;79.92
62697;BME280;48761;42.680;23.312;2024-03-25T01:45:09;93515.75;;;7.23;80.64
62697;BME280;48761;42.680;23.312;2024-03-25T01:47:35;93497.78;;;7.61;80.77
62697;BME280;48761;42.680;23.312;2024-03-25T01:50:02;93501.22;;;7.17;81.74
62697;BME280;48761;42.680;23.312;2024-03-25T01:52:28;93498.94;;;7.12;82.43
62697;BME280;48761;42.680;23.312;2024-03-25T01:54:54;93513.44;;;7.41;81.04
62697;BME280;48761;42.680;23.312;2024-03-25T01:57:20;93518.72;;;7.41;81.43
62697;BME280;48761;42.680;23.312;2024-03-25T01:59:47;93517.38;;;7.70;80.33
62697;BME280;48761;42.680;23.312;2024-03-25T02:02:13;93535.53;;;6.82;82.49
62697;BME280;48761;42.680;23.312;2024-03-25T02:04:42;93530.84;;;6.75;84.42
62697;BME280;48761;42.680;23.312;2024-03-25T02:07:08;93538.38;;;6.68;82.95
62697;BME280;48761;42.680;23.312;2024-03-25T02:09:35;93544.75;;;6.29;83.61
62697;BME280;48761;42.680;23.312;2024-03-25T02:12:02;93542.66;;;6.57;82.74
62697;BME280;48761;42.680;23.312;2024-03-25T02:14:28;93537.25;;;6.11;84.75
62697;BME280;48761;42.680;23.312;2024-03-25T02:16:53;93541.56;;;5.75;85.21
62697;BME280;48761;42.680;23.312;2024-03-25T02:19:21;93533.22;;;6.30;83.49
62697;BME280;48761;42.680;23.312;2024-03-25T02:21:49;93537.63;;;6.05;82.99
62697;BME280;48761;42.680;23.312;2024-03-25T02:24:15;93526.75;;;5.85;84.54
62697;BME280;48761;42.680;23.312;2024-03-25T02:26:41;93524.16;;;6.46;82.30
62697;BME280;48761;42.680;23.312;2024-03-25T02:29:09;93481.91;;;6.10;81.59
62697;BME280;48761;42.680;23.312;2024-03-25T02:31:35;93529.56;;;6.20;83.09
62697;BME280;48761;42.680;23.312;2024-03-25T02:34:01;93536.91;;;6.03;83.93
62697;BME280;48761;42.680;23.312;2024-03-25T02:36:27;93522.38;;;6.58;82.36
62697;BME280;48761;42.680;23.312;2024-03-25T02:38:53;93530.22;;;6.59;81.83
62697;BME280;48761;42.680;23.312;2024-03-25T02:41:19;93530.06;;;6.61;82.54
62697;BME280;48761;42.680;23.312;2024-03-25T02:43:45;93528.28;;;6.61;82.04
62697;BME280;48761;42.680;23.312;2024-03-25T02:46:11;93532.53;;;6.99;81.06
62697;BME280;48761;42.680;23.312;2024-03-25T02:48:37;93524.38;;;6.43;82.67
62697;BME280;48761;42.680;23.312;2024-03-25T02:51:03;93540.19;;;6.79;81.28
62697;BME280;48761;42.680;23.312;2024-03-25T02:53:29;93534.50;;;6.49;82.84
62697;BME280;48761;42.680;23.312;2024-03-25T02:55:54;93550.03;;;6.29;83.45
62697;BME280;48761;42.680;23.312;2024-03-25T02:58:20;93541.06;;;6.43;82.34
62697;BME280;48761;42.680;23.312;2024-03-25T03:00:46;93545.88;;;6.13;82.30
62697;BME280;48761;42.680;23.312;2024-03-25T03:03:12;93563.38;;;6.14;81.84
62697;BME280;48761;42.680;23.312;2024-03-25T03:05:38;93556.84;;;6.56;80.44
62697;BME280;48761;42.680;23.312;2024-03-25T03:08:04;93541.50;;;6.61;79.59
62697;BME280;48761;42.680;23.312;2024-03-25T03:10:30;93557.88;;;6.90;79.78
62697;BME280;48761;42.680;23.312;2024-03-25T03:12:56;93560.00;;;6.12;81.79
62697;BME280;48761;42.680;23.312;2024-03-25T03:15:22;93559.56;;;6.19;81.74
62697;BME280;48761;42.680;23.312;2024-03-25T03:17:48;93557.06;;;6.53;79.74
62697;BME280;48761;42.680;23.312;2024-03-25T03:20:13;93555.38;;;6.52;78.99
62697;BME280;48761;42.680;23.312;2024-03-25T03:22:39;93543.34;;;6.84;78.41
62697;BME280;48761;42.680;23.312;2024-03-25T03:25:05;93548.16;;;7.13;77.50
62697;BME280;48761;42.680;23.312;2024-03-25T03:27:31;93563.22;;;7.13;77.37
62697;BME280;48761;42.680;23.312;2024-03-25T03:29:57;93564.69;;;6.69;79.06
62697;BME280;48761;42.680;23.312;2024-03-25T03:32:23;93563.63;;;6.83;77.76
62697;BME280;48761;42.680;23.312;2024-03-25T03:34:49;93579.84;;;6.90;78.22
62697;BME280;48761;42.680;23.312;2024-03-25T03:37:15;93565.69;;;6.55;78.60
62697;BME280;48761;42.680;23.312;2024-03-25T03:39:41;93578.59;;;6.11;80.43
62697;BME280;48761;42.680;23.312;2024-03-25T03:42:06;93577.19;;;6.43;79.06
62697;BME280;48761;42.680;23.312;2024-03-25T03:44:32;93578.47;;;6.61;78.38
62697;BME280;48761;42.680;23.312;2024-03-25T03:46:58;93584.84;;;6.34;78.90
62697;BME280;48761;42.680;23.312;2024-03-25T03:49:24;93595.03;;;6.75;78.03
62697;BME280;48761;42.680;23.312;2024-03-25T03:51:50;93591.44;;;6.65;77.62
62697;BME280;48761;42.680;23.312;2024-03-25T03:54:17;93590.22;;;6.33;79.02
62697;BME280;48761;42.680;23.312;2024-03-25T03:56:43;93589.94;;;6.49;78.76
62697;BME280;48761;42.680;23.312;2024-03-25T03:59:09;93582.28;;;6.33;78.27
62697;BME280;48761;42.680;23.312;2024-03-25T04:01:35;93590.94;;;6.10;78.73
62697;BME280;48761;42.680;23.312;2024-03-25T04:04:01;93608.00;;;6.42;78.05
62697;BME280;48761;42.680;23.312;2024-03-25T04:06:26;93606.84;;;6.22;77.91
62697;BME280;48761;42.680;23.312;2024-03-25T04:08:52;93612.69;;;6.38;77.52
62697;BME280;48761;42.680;23.312;2024-03-25T04:11:18;93620.81;;;6.11;79.04
62697;BME280;48761;42.680;23.312;2024-03-25T04:13:46;93611.09;;;6.60;79.00
62697;BME280;48761;42.680;23.312;2024-03-25T04:16:12;93616.25;;;6.37;78.14
62697;BME280;48761;42.680;23.312;2024-03-25T04:18:38;93618.41;;;6.32;78.38
62697;BME280;48761;42.680;23.312;2024-03-25T04:21:04;93623.16;;;6.27;77.56
62697;BME280;48761;42.680;23.312;2024-03-25T04:23:30;93628.56;;;5.88;78.84
62697;BME280;48761;42.680;23.312;2024-03-25T04:26:01;93648.28;;;5.82;78.98
62697;BME280;48761;42.680;23.312;2024-03-25T04:28:27;93638.34;;;5.99;78.97
62697;BME280;48761;42.680;23.312;2024-03-25T04:30:53;93643.50;;;6.13;78.33
62697;BME280;48761;42.680;23.312;2024-03-25T04:33:19;93644.19;;;6.28;79.00
62697;BME280;48761;42.680;23.312;2024-03-25T04:35:46;93656.47;;;6.16;78.55
62697;BME280;48761;42.680;23.312;2024-03-25T04:38:12;93660.75;;;6.31;78.10
62697;BME280;48761;42.680;23.312;2024-03-25T04:40:38;93670.41;;;6.05;78.43
62697;BME280;48761;42.680;23.312;2024-03-25T04:43:04;93676.09;;;6.12;77.68
62697;BME280;48761;42.680;23.312;2024-03-25T04:45:30;93688.34;;;6.00;77.87
62697;BME280;48761;42.680;23.312;2024-03-25T04:47:56;93690.06;;;6.01;77.82
62697;BME280;48761;42.680;23.312;2024-03-25T04:50:21;93680.63;;;6.48;77.54
62697;BME280;48761;42.680;23.312;2024-03-25T04:52:47;93684.97;;;5.98;78.22
62697;BME280;48761;42.680;23.312;2024-03-25T04:55:13;93692.03;;;6.24;77.44
62697;BME280;48761;42.680;23.312;2024-03-25T04:57:39;93697.84;;;6.16;77.00
62697;BME280;48761;42.680;23.312;2024-03-25T05:00:05;93698.91;;;6.13;77.78
62697;BME280;48761;42.680;23.312;2024-03-25T05:02:31;93686.03;;;6.22;77.66
62697;BME280;48761;42.680;23.312;2024-03-25T05:04:57;93684.34;;;6.08;76.92
62697;BME280;48761;42.680;23.312;2024-03-25T05:07:23;93688.16;;;5.90;78.17
62697;BME280;48761;42.680;23.312;2024-03-25T05:09:49;93692.38;;;5.93;77.78
62697;BME280;48761;42.680;23.312;2024-03-25T05:12:15;93700.09;;;5.57;77.59
62697;BME280;48761;42.680;23.312;2024-03-25T05:14:41;93701.56;;;6.13;77.42
62697;BME280;48761;42.680;23.312;2024-03-25T05:17:07;93696.16;;;6.02;77.54
62697;BME280;48761;42.680;23.312;2024-03-25T05:19:32;93698.91;;;5.87;77.88
62697;BME280;48761;42.680;23.312;2024-03-25T05:21:58;93705.63;;;6.04;76.91
62697;BME280;48761;42.680;23.312;2024-03-25T05:24:24;93711.75;;;6.31;76.13
62697;BME280;48761;42.680;23.312;2024-03-25T05:26:50;93708.41;;;6.16;75.61
62697;BME280;48761;42.680;23.312;2024-03-25T05:29:16;93713.06;;;5.86;77.05
62697;BME280;48761;42.680;23.312;2024-03-25T05:31:56;93722.72;;;6.25;75.66
62697;BME280;48761;42.680;23.312;2024-03-25T05:34:23;93728.25;;;6.59;74.93
62697;BME280;48761;42.680;23.312;2024-03-25T05:36:48;93719.06;;;6.14;75.89
62697;BME280;48761;42.680;23.312;2024-03-25T05:39:14;93720.47;;;5.81;76.53
62697;BME280;48761;42.680;23.312;2024-03-25T05:41:40;93727.00;;;5.88;76.12
62697;BME280;48761;42.680;23.312;2024-03-25T05:44:06;93730.94;;;6.33;75.14
62697;BME280;48761;42.680;23.312;2024-03-25T05:46:32;93733.91;;;6.42;74.50
62697;BME280;48761;42.680;23.312;2024-03-25T05:49:02;93746.56;;;6.36;75.04
62697;BME280;48761;42.680;23.312;2024-03-25T05:51:31;93749.28;;;6.48;74.09
62697;BME280;48761;42.680;23.312;2024-03-25T05:53:58;93746.91;;;6.32;74.12
62697;BME280;48761;42.680;23.312;2024-03-25T05:56:24;93753.25;;;6.67;73.44
62697;BME280;48761;42.680;23.312;2024-03-25T05:58:50;93753.97;;;7.18;73.09
62697;BME280;48761;42.680;23.312;2024-03-25T06:01:15;93757.53;;;7.42;72.12
62697;BME280;48761;42.680;23.312;2024-03-25T06:03:41;93749.53;;;7.66;69.90
62697;BME280;48761;42.680;23.312;2024-03-25T06:06:07;93756.53;;;7.67;69.32
62697;BME280;48761;42.680;23.312;2024-03-25T06:08:33;93753.69;;;7.10;70.68
62697;BME280;48761;42.680;23.312;2024-03-25T06:11:01;93762.88;;;7.28;70.94
62697;BME280;48761;42.680;23.312;2024-03-25T06:13:27;93765.84;;;7.48;70.63
62697;BME280;48761;42.680;23.312;2024-03-25T06:15:53;93772.03;;;7.24;70.06
62697;BME280;48761;42.680;23.312;2024-03-25T06:18:19;93769.44;;;7.95;68.01
62697;BME280;48761;42.680;23.312;2024-03-25T06:20:45;93768.13;;;8.01;68.40
62697;BME280;48761;42.680;23.312;2024-03-25T06:23:12;93779.53;;;7.78;68.01
62697;BME280;48761;42.680;23.312;2024-03-25T06:25:47;93783.28;;;8.33;65.67
62697;BME280;48761;42.680;23.312;2024-03-25T06:28:12;93788.34;;;8.36;65.01
62697;BME280;48761;42.680;23.312;2024-03-25T06:30:38;93787.50;;;8.13;65.17
62697;BME280;48761;42.680;23.312;2024-03-25T06:33:04;93788.81;;;8.88;63.13
62697;BME280;48761;42.680;23.312;2024-03-25T06:35:30;93786.88;;;8.32;64.47
62697;BME280;48761;42.680;23.312;2024-03-25T06:37:56;93792.34;;;9.21;61.93
62697;BME280;48761;42.680;23.312;2024-03-25T06:40:22;93792.41;;;8.98;62.21
62697;BME280;48761;42.680;23.312;2024-03-25T06:42:48;93798.59;;;8.41;64.69
62697;BME280;48761;42.680;23.312;2024-03-25T06:45:14;93804.72;;;8.53;63.90
62697;BME280;48761;42.680;23.312;2024-03-25T06:47:39;93814.84;;;8.36;64.36
62697;BME280;48761;42.680;23.312;2024-03-25T06:50:06;93820.03;;;8.61;63.65
62697;BME280;48761;42.680;23.312;2024-03-25T06:52:31;93822.31;;;8.77;63.56
62697;BME280;48761;42.680;23.312;2024-03-25T06:54:57;93830.00;;;8.57;62.98
62697;BME280;48761;42.680;23.312;2024-03-25T06:57:23;93837.72;;;9.39;62.27
62697;BME280;48761;42.680;23.312;2024-03-25T06:59:49;93828.13;;;9.60;60.83
62697;BME280;48761;42.680;23.312;2024-03-25T07:02:15;93836.75;;;9.40;61.37
62697;BME280;48761;42.680;23.312;2024-03-25T07:04:41;93834.28;;;9.82;60.48
62697;BME280;48761;42.680;23.312;2024-03-25T07:07:07;93830.41;;;9.32;60.12
62697;BME280;48761;42.680;23.312;2024-03-25T07:09:33;93828.50;;;9.22;61.08
62697;BME280;48761;42.680;23.312;2024-03-25T07:11:58;93825.31;;;9.94;58.53
62697;BME280;48761;42.680;23.312;2024-03-25T07:14:24;93838.78;;;9.04;60.08
62697;BME280;48761;42.680;23.312;2024-03-25T07:16:50;93839.91;;;9.34;60.97
62697;BME280;48761;42.680;23.312;2024-03-25T07:19:16;93853.09;;;9.13;59.76
62697;BME280;48761;42.680;23.312;2024-03-25T07:21:42;93855.03;;;9.11;59.76
62697;BME280;48761;42.680;23.312;2024-03-25T07:24:08;93844.81;;;10.05;57.27
62697;BME280;48761;42.680;23.312;2024-03-25T07:26:34;93857.00;;;9.74;58.06
62697;BME280;48761;42.680;23.312;2024-03-25T07:29:00;93851.53;;;9.88;57.48
62697;BME280;48761;42.680;23.312;2024-03-25T07:31:25;93841.47;;;9.91;57.91
62697;BME280;48761;42.680;23.312;2024-03-25T07:33:51;93847.53;;;9.27;58.94
62697;BME280;48761;42.680;23.312;2024-03-25T07:36:17;93843.53;;;9.66;58.11
62697;BME280;48761;42.680;23.312;2024-03-25T07:38:43;93843.06;;;10.15;57.42
62697;BME280;48761;42.680;23.312;2024-03-25T07:41:09;93844.94;;;10.03;57.28
62697;BME280;48761;42.680;23.312;2024-03-25T07:43:35;93847.31;;;9.19;59.37
62697;BME280;48761;42.680;23.312;2024-03-25T07:46:01;93844.78;;;9.06;59.48
62697;BME280;48761;42.680;23.312;2024-03-25T07:48:27;93851.66;;;9.20;59.04
62697;BME280;48761;42.680;23.312;2024-03-25T07:50:52;93846.66;;;10.14;57.23
62697;BME280;48761;42.680;23.312;2024-03-25T07:53:18;93835.19;;;10.14;55.95
62697;BME280;48761;42.680;23.312;2024-03-25T07:55:44;93845.34;;;10.73;55.75
62697;BME280;48761;42.680;23.312;2024-03-25T07:58:10;93852.22;;;11.27;54.44
62697;BME280;48761;42.680;23.312;2024-03-25T08:00:36;93854.28;;;10.72;54.69
62697;BME280;48761;42.680;23.312;2024-03-25T08:03:02;93847.53;;;10.99;53.85
62697;BME280;48761;42.680;23.312;2024-03-25T08:05:30;93855.34;;;11.52;52.60
62697;BME280;48761;42.680;23.312;2024-03-25T08:07:56;93850.09;;;11.20;53.98
62697;BME280;48761;42.680;23.312;2024-03-25T08:10:21;93855.09;;;11.04;53.90
62697;BME280;48761;42.680;23.312;2024-03-25T08:12:47;93861.63;;;11.41;53.23
62697;BME280;48761;42.680;23.312;2024-03-25T08:15:14;93861.53;;;11.01;52.77
62697;BME280;48761;42.680;23.312;2024-03-25T08:17:39;93859.41;;;10.95;52.86
62697;BME280;48761;42.680;23.312;2024-03-25T08:20:06;93867.59;;;11.23;52.65
62697;BME280;48761;42.680;23.312;2024-03-25T08:22:32;93864.91;;;11.74;53.28
62697;BME280;48761;42.680;23.312;2024-03-25T08:24:58;93861.53;;;11.82;51.63
62697;BME280;48761;42.680;23.312;2024-03-25T08:27:24;93874.22;;;10.87;52.48
62697;BME280;48761;42.680;23.312;2024-03-25T08:29:49;93867.59;;;11.23;52.20
62697;BME280;48761;42.680;23.312;2024-03-25T08:32:15;93879.38;;;11.30;51.81
62697;BME280;48761;42.680;23.312;2024-03-25T08:34:41;93882.91;;;11.41;52.21
62697;BME280;48761;42.680;23.312;2024-03-25T08:37:07;93873.31;;;11.80;51.44
62697;BME280;48761;42.680;23.312;2024-03-25T08:39:33;93883.25;;;11.97;51.27
62697;BME280;48761;42.680;23.312;2024-03-25T08:41:59;93883.03;;;11.29;51.20
62697;BME280;48761;42.680;23.312;2024-03-25T08:44:25;93896.69;;;11.66;50.03
62697;BME280;48761;42.680;23.312;2024-03-25T08:46:50;93894.00;;;11.66;49.60
62697;BME280;48761;42.680;23.312;2024-03-25T08:49:16;93894.31;;;12.13;48.54
62697;BME280;48761;42.680;23.312;2024-03-25T08:51:42;93884.81;;;11.90;48.92
62697;BME280;48761;42.680;23.312;2024-03-25T08:54:08;93897.28;;;11.99;49.33
62697;BME280;48761;42.680;23.312;2024-03-25T08:56:34;93895.19;;;12.03;49.85
62697;BME280;48761;42.680;23.312;2024-03-25T08:59:00;93905.53;;;11.96;50.57
62697;BME280;48761;42.680;23.312;2024-03-25T09:01:26;93903.47;;;12.30;49.65
62697;BME280;48761;42.680;23.312;2024-03-25T09:03:52;93904.19;;;12.80;49.07
62697;BME280;48761;42.680;23.312;2024-03-25T09:06:18;93901.31;;;12.04;48.96
62697;BME280;48761;42.680;23.312;2024-03-25T09:08:43;93899.75;;;11.51;50.24
62697;BME280;48761;42.680;23.312;2024-03-25T09:11:09;93905.97;;;11.30;51.17
62697;BME280;48761;42.680;23.312;2024-03-25T09:13:35;93915.94;;;11.38;50.82
62697;BME280;48761;42.680;23.312;2024-03-25T09:16:01;93914.72;;;11.01;51.21
62697;BME280;48761;42.680;23.312;2024-03-25T09:18:27;93912.88;;;10.92;52.22
62697;BME280;48761;42.680;23.312;2024-03-25T09:20:53;93922.91;;;11.81;49.92
62697;BME280;48761;42.680;23.312;2024-03-25T09:23:19;93926.66;;;10.54;52.69
62697;BME280;48761;42.680;23.312;2024-03-25T09:25:52;93921.47;;;10.19;52.98
62697;BME280;48761;42.680;23.312;2024-03-25T09:28:18;93936.63;;;10.07;53.75
62697;BME280;48761;42.680;23.312;2024-03-25T09:30:44;93928.19;;;10.78;52.75
62697;BME280;48761;42.680;23.312;2024-03-25T09:33:10;93928.84;;;10.49;52.02
62697;BME280;48761;42.680;23.312;2024-03-25T09:35:35;93933.84;;;10.09;52.62
62697;BME280;48761;42.680;23.312;2024-03-25T09:38:01;93925.41;;;10.04;54.43
62697;BME280;48761;42.680;23.312;2024-03-25T09:40:27;93921.81;;;10.48;53.15
62697;BME280;48761;42.680;23.312;2024-03-25T09:42:57;93927.31;;;10.13;53.41
62697;BME280;48761;42.680;23.312;2024-03-25T09:45:28;93925.22;;;9.95;53.90
62697;BME280;48761;42.680;23.312;2024-03-25T09:47:55;93926.47;;;10.34;53.12
62697;BME280;48761;42.680;23.312;2024-03-25T09:50:21;93915.09;;;10.43;53.16
62697;BME280;48761;42.680;23.312;2024-03-25T09:52:48;93921.34;;;10.54;53.29
62697;BME280;48761;42.680;23.312;2024-03-25T09:55:15;93917.53;;;10.35;53.36
62697;BME280;48761;42.680;23.312;2024-03-25T09:57:43;93925.00;;;10.41;53.04
62697;BME280;48761;42.680;23.312;2024-03-25T10:00:10;93917.13;;;10.51;52.99
62697;BME280;48761;42.680;23.312;2024-03-25T10:02:38;93924.34;;;10.49;52.79
62697;BME280;48761;42.680;23.312;2024-03-25T10:05:08;93937.72;;;10.05;53.49
62697;BME280;48761;42.680;23.312;2024-03-25T10:07:34;93926.75;;;10.31;52.21
62697;BME280;48761;42.680;23.312;2024-03-25T10:10:07;93932.97;;;10.20;51.86
62697;BME280;48761;42.680;23.312;2024-03-25T10:12:36;93927.09;;;10.05;52.02
62697;BME280;48761;42.680;23.312;2024-03-25T10:15:03;93934.91;;;9.85;52.23
62697;BME280;48761;42.680;23.312;2024-03-25T10:17:30;93931.50;;;9.94;52.61
62697;BME280;48761;42.680;23.312;2024-03-25T10:19:56;93933.84;;;10.09;51.38
62697;BME280;48761;42.680;23.312;2024-03-25T10:22:22;93933.84;;;10.09;52.26
62697;BME280;48761;42.680;23.312;2024-03-25T10:24:48;93939.44;;;10.27;51.22
62697;BME280;48761;42.680;23.312;2024-03-25T10:27:21;93917.41;;;10.15;52.42
62697;BME280;48761;42.680;23.312;2024-03-25T10:29:54;93913.38;;;10.54;51.10
62697;BME280;48761;42.680;23.312;2024-03-25T10:32:20;93926.75;;;10.31;50.72
62697;BME280;48761;42.680;23.312;2024-03-25T10:34:47;93929.47;;;10.62;49.64
62697;BME280;48761;42.680;23.312;2024-03-25T10:37:14;93932.25;;;10.18;49.53
62697;BME280;48761;42.680;23.312;2024-03-25T10:39:49;93924.59;;;10.25;48.82
62697;BME280;48761;42.680;23.312;2024-03-25T10:42:18;93921.97;;;10.68;49.44
62697;BME280;48761;42.680;23.312;2024-03-25T10:44:45;93926.22;;;10.80;47.53
62697;BME280;48761;42.680;23.312;2024-03-25T10:47:14;93930.50;;;10.50;48.09
62697;BME280;48761;42.680;23.312;2024-03-25T10:52:14;93921.75;;;10.38;48.16
62697;BME280;48761;42.680;23.312;2024-03-25T10:54:42;93926.91;;;10.51;47.51
62697;BME280;48761;42.680;23.312;2024-03-25T10:57:09;93921.75;;;10.81;47.28
62697;BME280;48761;42.680;23.312;2024-03-25T10:59:37;93933.88;;;10.30;47.53
62697;BME280;48761;42.680;23.312;2024-03-25T11:02:03;93928.16;;;10.35;47.51
62697;BME280;48761;42.680;23.312;2024-03-25T11:04:30;93921.16;;;10.13;48.38
62697;BME280;48761;42.680;23.312;2024-03-25T11:07:07;93923.59;;;10.04;47.45
62697;BME280;48761;42.680;23.312;2024-03-25T11:09:33;93930.22;;;10.10;47.25
62697;BME280;48761;42.680;23.312;2024-03-25T11:11:59;93909.84;;;11.06;46.19
62697;BME280;48761;42.680;23.312;2024-03-25T11:14:25;93922.44;;;11.04;45.90
62697;BME280;48761;42.680;23.312;2024-03-25T11:16:55;93911.59;;;11.27;47.23
62697;BME280;48761;42.680;23.312;2024-03-25T11:19:25;93908.56;;;11.42;47.20
62697;BME280;48761;42.680;23.312;2024-03-25T11:21:51;93914.78;;;11.72;45.85
62697;BME280;48761;42.680;23.312;2024-03-25T11:24:30;93917.78;;;11.48;46.62
62697;BME280;48761;42.680;23.312;2024-03-25T11:26:56;93930.41;;;11.04;49.79
62697;BME280;48761;42.680;23.312;2024-03-25T11:29:22;93931.81;;;11.08;50.18
62697;BME280;48761;42.680;23.312;2024-03-25T11:31:53;93931.19;;;10.95;50.01
62697;BME280;48761;42.680;23.312;2024-03-25T11:34:22;93943.16;;;11.10;50.18
62697;BME280;48761;42.680;23.312;2024-03-25T11:36:48;93949.59;;;11.08;49.73
62697;BME280;48761;42.680;23.312;2024-03-25T11:39:14;93931.50;;;11.43;48.98
62697;BME280;48761;42.680;23.312;2024-03-25T11:41:40;93921.81;;;10.91;50.48
62697;BME280;48761;42.680;23.312;2024-03-25T11:44:10;93932.25;;;11.14;50.90
62697;BME280;48761;42.680;23.312;2024-03-25T11:46:37;93932.25;;;10.82;50.97
62697;BME280;48761;42.680;23.312;2024-03-25T11:49:07;93931.50;;;11.02;51.25
62697;BME280;48761;42.680;23.312;2024-03-25T11:51:33;93931.53;;;10.80;51.50
62697;BME280;48761;42.680;23.312;2024-03-25T11:53:59;93929.94;;;10.68;51.84
62697;BME280;48761;42.680;23.312;2024-03-25T11:56:28;93937.53;;;10.51;51.73
62697;BME280;48761;42.680;23.312;2024-03-25T11:58:54;93947.00;;;9.78;52.22
62697;BME280;48761;42.680;23.312;2024-03-25T12:01:20;93944.22;;;9.79;52.15
62697;BME280;48761;42.680;23.312;2024-03-25T12:03:46;93934.78;;;10.62;51.12
62697;BME280;48761;42.680;23.312;2024-03-25T12:06:11;93929.34;;;10.85;49.47
62697;BME280;48761;42.680;23.312;2024-03-25T12:08:37;93937.56;;;11.14;49.85
62697;BME280;48761;42.680;23.312;2024-03-25T12:11:03;93940.41;;;11.22;49.61
62697;BME280;48761;42.680;23.312;2024-03-25T12:13:29;93945.97;;;10.87;48.44
62697;BME280;48761;42.680;23.312;2024-03-25T12:15:55;93947.63;;;10.57;48.77
62697;BME280;48761;42.680;23.312;2024-03-25T12:18:21;93941.28;;;10.70;49.12
62697;BME280;48761;42.680;23.312;2024-03-25T12:20:48;93941.88;;;10.52;49.30
62697;BME280;48761;42.680;23.312;2024-03-25T12:23:14;93932.19;;;10.94;49.74
62697;BME280;48761;42.680;23.312;2024-03-25T12:25:40;93940.06;;;11.05;49.26
62697;BME280;48761;42.680;23.312;2024-03-25T12:28:09;93945.91;;;10.99;48.92
62697;BME280;48761;42.680;23.312;2024-03-25T12:30:49;93939.16;;;10.95;48.89
62697;BME280;48761;42.680;23.312;2024-03-25T12:33:15;93931.06;;;10.96;48.81
62697;BME280;48761;42.680;23.312;2024-03-25T12:35:41;93951.06;;;11.22;49.17
62697;BME280;48761;42.680;23.312;2024-03-25T12:38:07;93948.66;;;10.87;48.21
62697;BME280;48761;42.680;23.312;2024-03-25T12:40:33;93941.97;;;11.86;48.57
62697;BME280;48761;42.680;23.312;2024-03-25T12:42:58;93949.38;;;11.62;47.30
62697;BME280;48761;42.680;23.312;2024-03-25T12:45:24;93943.31;;;10.87;47.83
62697;BME280;48761;42.680;23.312;2024-03-25T12:47:51;93950.44;;;10.56;49.01
62697;BME280;48761;42.680;23.312;2024-03-25T12:50:17;93949.03;;;10.18;49.16
62697;BME280;48761;42.680;23.312;2024-03-25T12:52:43;93952.28;;;10.86;47.41